»·PEaware :: N313KP KPDX-KOTH

N313KP :: KPDX-KOTH

FLIGHT INFORMATION

Flight Status: Arrived
Operator: Privately registered:
United States
More flights under this callsign
Pilot: Erik A. (17503)
Aircraft: BEECH AIRCRAFT BONANZA
(BE35)
More flights by this aircraft type
Origin: KPDX Portland Intl
United States
Destination: KOTH North Bend Mun
United States
More flights between these airports :: More routes between these airports
Route: +PTLD1 UBG V287 ZUBOR
File this flight plan on PilotEdge
Remarks:
Altitude:
(Current/Filed)
8,000ft
Speed:
(Current/Filed)
140kts
Departed: 11-Jan-20 04:32 PM
Arrived: 11-Jan-20 05:48 PM
Distance/Time
Traveled:
148nm/1:16
Distance/Time
To Go:
Arrived

Flight Plot

Page will automatically refresh every two minutes.

Flight plan parsing failed; only flown route is shown


Map Options




Map Legend


Flown Route
Filed Route
Departure Airport
Arrival Airport
Navaid (VOR, NDB)
Fix

Horizontal Profiles

Position Reports

Time Latitude Longitude Heading Altitude Ground
Speed
11-Jan-20 15:43 45.585061 -122.578453 211 21ft 0kts
11-Jan-20 15:44 45.585061 -122.578453 211 21ft 0kts
11-Jan-20 15:45 45.585061 -122.578453 211 21ft 0kts
11-Jan-20 15:46 45.585061 -122.578453 211 21ft 0kts
11-Jan-20 15:47 45.585061 -122.578453 211 21ft 0kts
11-Jan-20 15:48 45.585061 -122.578453 211 21ft 0kts
11-Jan-20 15:49 45.585061 -122.578453 211 21ft 0kts
11-Jan-20 15:50 45.585060 -122.578454 211 21ft 0kts
11-Jan-20 15:51 45.585058 -122.578456 211 21ft 0kts
11-Jan-20 15:52 45.585056 -122.578457 211 21ft 0kts
11-Jan-20 15:53 45.585054 -122.578459 211 21ft 0kts
11-Jan-20 15:54 45.585052 -122.578461 211 21ft 0kts
11-Jan-20 15:55 45.585051 -122.578462 211 21ft 0kts
11-Jan-20 15:56 45.585049 -122.578463 211 21ft 0kts
11-Jan-20 15:57 45.585048 -122.578464 211 21ft 0kts
11-Jan-20 15:58 45.585047 -122.578465 211 21ft 0kts
11-Jan-20 15:59 45.585045 -122.578467 211 21ft 0kts
11-Jan-20 16:00 45.585044 -122.578468 211 21ft 0kts
11-Jan-20 16:01 45.585043 -122.578469 211 21ft 0kts
11-Jan-20 16:02 45.585041 -122.578470 211 21ft 0kts
11-Jan-20 16:03 45.585040 -122.578471 211 21ft 0kts
11-Jan-20 16:04 45.585038 -122.578472 211 21ft 0kts
11-Jan-20 16:05 45.585037 -122.578474 211 21ft 0kts
11-Jan-20 16:06 45.585036 -122.578475 211 21ft 0kts
11-Jan-20 16:07 45.585034 -122.578476 211 21ft 0kts
11-Jan-20 16:08 45.585033 -122.578477 211 21ft 0kts
11-Jan-20 16:09 45.585032 -122.578478 211 21ft 0kts
11-Jan-20 16:10 45.585030 -122.578480 211 21ft 0kts
11-Jan-20 16:11 45.585029 -122.578481 211 21ft 0kts
11-Jan-20 16:12 45.585027 -122.578482 211 21ft 0kts
11-Jan-20 16:13 45.585026 -122.578483 211 21ft 0kts
11-Jan-20 16:14 45.585025 -122.578485 211 21ft 0kts
11-Jan-20 16:15 45.585023 -122.578486 211 21ft 0kts
11-Jan-20 16:16 45.585022 -122.578487 211 21ft 0kts
11-Jan-20 16:17 45.585210 -122.578324 28 21ft 6kts
11-Jan-20 16:18 45.585763 -122.575601 112 21ft 9kts
11-Jan-20 16:19 45.584541 -122.572439 119 21ft 9kts
11-Jan-20 16:20 45.583439 -122.569483 85 21ft 5kts
11-Jan-20 16:21 45.583747 -122.568919 27 21ft 0kts
11-Jan-20 16:22 45.583749 -122.568917 27 21ft 0kts
11-Jan-20 16:23 45.583751 -122.568916 27 21ft 0kts
11-Jan-20 16:24 45.583752 -122.568915 27 21ft 0kts
11-Jan-20 16:25 45.583754 -122.568914 27 21ft 0kts
11-Jan-20 16:26 45.583759 -122.568910 27 21ft 0kts
11-Jan-20 16:27 45.583764 -122.568906 27 21ft 0kts
11-Jan-20 16:28 45.583769 -122.568903 27 21ft 0kts
11-Jan-20 16:29 45.583772 -122.568900 27 21ft 0kts
11-Jan-20 16:30 45.584071 -122.568648 28 21ft 7kts
11-Jan-20 16:31 45.585428 -122.571777 297 21ft 53kts
11-Jan-20 16:32 45.596824 -122.599736 296 575ft 86kts
11-Jan-20 16:33 45.609582 -122.628356 296 1574ft 80kts
11-Jan-20 16:34 45.613726 -122.656137 234 2375ft 92kts
11-Jan-20 16:35 45.593978 -122.676055 229 3289ft 86kts
11-Jan-20 16:36 45.575165 -122.697786 228 4104ft 88kts
11-Jan-20 16:37 45.556873 -122.719837 236 4897ft 85kts
11-Jan-20 16:38 45.537092 -122.739842 239 5678ft 83kts
11-Jan-20 16:39 45.521247 -122.762813 234 6452ft 83kts
11-Jan-20 16:40 45.505536 -122.786617 242 7148ft 84kts
11-Jan-20 16:41 45.486729 -122.807914 222 7893ft 96kts
11-Jan-20 16:42 45.463728 -122.823988 235 8651ft 86kts
11-Jan-20 16:43 45.444179 -122.844956 234 9334ft 88kts
11-Jan-20 16:44 45.428551 -122.869641 253 9950ft 81kts
11-Jan-20 16:45 45.413177 -122.897305 247 10594ft 80kts
11-Jan-20 16:46 45.392124 -122.917482 238 11232ft 96kts
11-Jan-20 16:47 45.369283 -122.940684 236 11791ft 111kts
11-Jan-20 16:48 45.338280 -122.968104 216 11903ft 154kts
11-Jan-20 16:49 45.296566 -122.990089 222 11922ft 161kts
11-Jan-20 16:50 45.256783 -123.018300 225 11988ft 159kts
11-Jan-20 16:51 45.220075 -123.051825 232 12018ft 154kts
11-Jan-20 16:52 45.185707 -123.087709 227 12033ft 159kts
11-Jan-20 16:53 45.147543 -123.120065 225 12015ft 160kts
11-Jan-20 16:54 45.106568 -123.148357 219 11978ft 166kts
11-Jan-20 16:55 45.061918 -123.169718 209 11970ft 172kts
11-Jan-20 16:56 45.014848 -123.185729 206 11951ft 175kts
11-Jan-20 16:57 44.967854 -123.201455 213 11947ft 169kts
11-Jan-20 16:58 44.923819 -123.223672 215 11958ft 167kts
11-Jan-20 16:59 44.882023 -123.250027 223 11951ft 162kts
11-Jan-20 17:00 44.844250 -123.282545 228 11954ft 158kts
11-Jan-20 17:01 44.807906 -123.316559 229 11946ft 157kts
11-Jan-20 17:02 44.768201 -123.346264 220 11956ft 164kts
11-Jan-20 17:03 44.726419 -123.372161 220 11968ft 164kts
11-Jan-20 17:04 44.685833 -123.400419 222 11979ft 162kts
11-Jan-20 17:05 44.645114 -123.428524 220 11999ft 163kts
11-Jan-20 17:06 44.603587 -123.455217 217 12006ft 166kts
11-Jan-20 17:07 44.561402 -123.480819 222 11998ft 163kts
11-Jan-20 17:08 44.522933 -123.512247 223 12019ft 162kts
11-Jan-20 17:09 44.480960 -123.538164 216 12055ft 166kts
11-Jan-20 17:10 44.438604 -123.562985 216 12069ft 166kts
11-Jan-20 17:11 44.393457 -123.582754 209 12080ft 172kts
11-Jan-20 17:12 44.348652 -123.603187 214 12093ft 168kts
11-Jan-20 17:13 44.304875 -123.625853 215 12108ft 167kts
11-Jan-20 17:14 44.260852 -123.647724 210 12107ft 172kts
11-Jan-20 17:15 44.216417 -123.670277 219 12070ft 165kts
11-Jan-20 17:16 44.173526 -123.695772 215 12022ft 169kts
11-Jan-20 17:17 44.127879 -123.715986 200 11955ft 181kts
11-Jan-20 17:18 44.078454 -123.725615 209 11922ft 174kts
11-Jan-20 17:19 44.034794 -123.749268 217 11918ft 167kts
11-Jan-20 17:20 43.991802 -123.773926 217 11915ft 166kts
11-Jan-20 17:21 43.949808 -123.801094 222 11871ft 164kts
11-Jan-20 17:22 43.910095 -123.831188 225 11855ft 161kts
11-Jan-20 17:23 43.873968 -123.865852 231 11864ft 155kts
11-Jan-20 17:24 43.842182 -123.904680 238 11849ft 151kts
11-Jan-20 17:25 43.808736 -123.942149 228 11815ft 159kts
11-Jan-20 17:26 43.771085 -123.975236 232 11372ft 156kts
11-Jan-20 17:27 43.736069 -124.010443 222 10861ft 157kts
11-Jan-20 17:28 43.694480 -124.034046 207 10253ft 166kts
11-Jan-20 17:29 43.651171 -124.052608 207 9740ft 160kts
11-Jan-20 17:31 43.626620 -124.088611 271 9271ft 132kts
11-Jan-20 17:32 43.628354 -124.136546 284 8863ft 132kts
11-Jan-20 17:33 43.633684 -124.185279 264 8450ft 130kts
11-Jan-20 17:34 43.628917 -124.235390 274 7834ft 131kts
11-Jan-20 17:35 43.631120 -124.284831 256 7313ft 130kts
11-Jan-20 17:36 43.614957 -124.330542 237 6767ft 135kts
11-Jan-20 17:37 43.596459 -124.375109 248 6188ft 131kts
11-Jan-20 17:38 43.573350 -124.416348 233 5516ft 139kts
11-Jan-20 17:39 43.542158 -124.448362 213 4818ft 144kts
11-Jan-20 17:40 43.503345 -124.463825 195 4153ft 145kts
11-Jan-20 17:41 43.462602 -124.468455 184 3490ft 148kts
11-Jan-20 17:42 43.421754 -124.468270 172 2980ft 150kts
11-Jan-20 17:43 43.410792 -124.418496 83 2275ft 156kts
11-Jan-20 17:44 43.412244 -124.360353 84 1511ft 144kts
11-Jan-20 17:45 43.414474 -124.310199 100 909ft 99kts
11-Jan-20 17:46 43.411105 -124.275946 91 622ft 87kts
11-Jan-20 17:47 43.418843 -124.250557 60 11ft 43kts
11-Jan-20 17:48 43.419558 -124.247470 143 11ft 0kts
11-Jan-20 17:49 43.418580 -124.247628 163 11ft 7kts
11-Jan-20 17:50 43.417456 -124.247297 237 11ft 0kts
11-Jan-20 17:51 43.417455 -124.247299 237 11ft 0kts
11-Jan-20 17:52 43.417454 -124.247301 237 11ft 0kts
11-Jan-20 17:52 43.417453 -124.247303 237 11ft 0kts
11-Jan-20 17:54 43.417453 -124.247303 237 11ft 0kts

Navigation Log

Ident Type
Flight plan parsing failed, navigation log unavailable